sensor_id;sensor_type;location;lat;lon;timestamp;pressure;altitude;pressure_sealevel;temperature;humidity
20043;BME280;10182;52.896;6.496;2023-09-07T00:01:11;101986.91;;;20.26;100.00
20043;BME280;10182;52.896;6.496;2023-09-07T00:06:13;101982.81;;;20.33;100.00
20043;BME280;10182;52.896;6.496;2023-09-07T00:11:16;101977.53;;;20.32;100.00
20043;BME280;10182;52.896;6.496;2023-09-07T00:16:18;101976.13;;;20.26;100.00
20043;BME280;10182;52.896;6.496;2023-09-07T00:21:19;101971.06;;;20.21;100.00
20043;BME280;10182;52.896;6.496;2023-09-07T00:26:23;101972.84;;;20.08;100.00
20043;BME280;10182;52.896;6.496;2023-09-07T00:31:25;101980.50;;;20.01;100.00
20043;BME280;10182;52.896;6.496;2023-09-07T00:36:26;101984.69;;;20.05;100.00
20043;BME280;10182;52.896;6.496;2023-09-07T00:41:29;101979.81;;;19.98;100.00
20043;BME280;10182;52.896;6.496;2023-09-07T00:46:31;101975.72;;;19.92;100.00
20043;BME280;10182;52.896;6.496;2023-09-07T00:51:33;101973.25;;;19.89;100.00
20043;BME280;10182;52.896;6.496;2023-09-07T00:56:36;101968.44;;;19.79;100.00
20043;BME280;10182;52.896;6.496;2023-09-07T01:01:38;101966.53;;;19.82;100.00
20043;BME280;10182;52.896;6.496;2023-09-07T01:06:43;101963.19;;;19.78;100.00
20043;BME280;10182;52.896;6.496;2023-09-07T01:11:48;101967.22;;;19.71;100.00
20043;BME280;10182;52.896;6.496;2023-09-07T01:16:50;101967.31;;;19.69;100.00
20043;BME280;10182;52.896;6.496;2023-09-07T01:21:53;101953.75;;;19.58;100.00
20043;BME280;10182;52.896;6.496;2023-09-07T01:26:55;101959.50;;;19.52;100.00
20043;BME280;10182;52.896;6.496;2023-09-07T01:31:57;101952.53;;;19.49;100.00
20043;BME280;10182;52.896;6.496;2023-09-07T01:37:00;101954.44;;;19.47;100.00
20043;BME280;10182;52.896;6.496;2023-09-07T01:42:02;101954.09;;;19.39;100.00
20043;BME280;10182;52.896;6.496;2023-09-07T01:47:04;101962.88;;;19.41;100.00
20043;BME280;10182;52.896;6.496;2023-09-07T01:52:07;101960.41;;;19.38;100.00
20043;BME280;10182;52.896;6.496;2023-09-07T01:57:08;101954.41;;;19.20;100.00
20043;BME280;10182;52.896;6.496;2023-09-07T02:02:10;101960.25;;;19.12;100.00
20043;BME280;10182;52.896;6.496;2023-09-07T02:07:13;101958.19;;;19.03;100.00
20043;BME280;10182;52.896;6.496;2023-09-07T02:12:15;101957.13;;;18.91;100.00
20043;BME280;10182;52.896;6.496;2023-09-07T02:17:16;101958.34;;;19.00;100.00
20043;BME280;10182;52.896;6.496;2023-09-07T02:22:20;101962.19;;;18.96;100.00
20043;BME280;10182;52.896;6.496;2023-09-07T02:27:22;101959.75;;;18.76;100.00
20043;BME280;10182;52.896;6.496;2023-09-07T02:32:44;101956.31;;;18.74;100.00
20043;BME280;10182;52.896;6.496;2023-09-07T02:37:47;101961.97;;;18.70;100.00
20043;BME280;10182;52.896;6.496;2023-09-07T02:42:49;101960.72;;;18.61;100.00
20043;BME280;10182;52.896;6.496;2023-09-07T02:47:50;101955.44;;;18.59;100.00
20043;BME280;10182;52.896;6.496;2023-09-07T02:52:54;101957.34;;;18.57;100.00
20043;BME280;10182;52.896;6.496;2023-09-07T02:57:56;101958.63;;;18.66;100.00
20043;BME280;10182;52.896;6.496;2023-09-07T03:02:58;101957.56;;;18.69;100.00
20043;BME280;10182;52.896;6.496;2023-09-07T03:08:01;101957.19;;;18.60;100.00
20043;BME280;10182;52.896;6.496;2023-09-07T03:13:03;101960.03;;;18.57;100.00
20043;BME280;10182;52.896;6.496;2023-09-07T03:18:05;101956.31;;;18.60;100.00
20043;BME280;10182;52.896;6.496;2023-09-07T03:23:08;101957.34;;;18.57;100.00
20043;BME280;10182;52.896;6.496;2023-09-07T03:28:10;101965.09;;;18.48;100.00
20043;BME280;10182;52.896;6.496;2023-09-07T03:33:12;101957.25;;;18.44;100.00
20043;BME280;10182;52.896;6.496;2023-09-07T03:38:15;101956.09;;;18.49;100.00
20043;BME280;10182;52.896;6.496;2023-09-07T03:43:17;101962.41;;;18.48;100.00
20043;BME280;10182;52.896;6.496;2023-09-07T03:48:19;101951.78;;;18.46;100.00
20043;BME280;10182;52.896;6.496;2023-09-07T03:53:22;101961.28;;;18.52;100.00
20043;BME280;10182;52.896;6.496;2023-09-07T03:58:24;101959.25;;;18.41;100.00
20043;BME280;10182;52.896;6.496;2023-09-07T04:03:25;101963.56;;;18.29;100.00
20043;BME280;10182;52.896;6.496;2023-09-07T04:08:28;101966.78;;;18.20;100.00
20043;BME280;10182;52.896;6.496;2023-09-07T04:13:30;101971.63;;;18.13;100.00
20043;BME280;10182;52.896;6.496;2023-09-07T04:18:32;101971.94;;;18.08;100.00
20043;BME280;10182;52.896;6.496;2023-09-07T04:23:35;101965.19;;;18.01;100.00
20043;BME280;10182;52.896;6.496;2023-09-07T04:28:37;101969.88;;;17.98;100.00
20043;BME280;10182;52.896;6.496;2023-09-07T04:33:39;101969.97;;;17.96;100.00
20043;BME280;10182;52.896;6.496;2023-09-07T04:38:42;101967.53;;;17.91;100.00
20043;BME280;10182;52.896;6.496;2023-09-07T04:43:44;101958.34;;;17.80;100.00
20043;BME280;10182;52.896;6.496;2023-09-07T04:48:46;101959.94;;;17.84;100.00
20043;BME280;10182;52.896;6.496;2023-09-07T04:53:49;101966.41;;;17.96;100.00
20043;BME280;10182;52.896;6.496;2023-09-07T04:58:51;101967.59;;;17.90;100.00
20043;BME280;10182;52.896;6.496;2023-09-07T05:03:52;101966.25;;;17.83;100.00
20043;BME280;10182;52.896;6.496;2023-09-07T05:08:56;101970.72;;;17.82;100.00
20043;BME280;10182;52.896;6.496;2023-09-07T05:13:58;101977.09;;;17.80;100.00
20043;BME280;10182;52.896;6.496;2023-09-07T05:18:59;101978.34;;;17.74;100.00
20043;BME280;10182;52.896;6.496;2023-09-07T05:24:03;101979.63;;;17.83;100.00
20043;BME280;10182;52.896;6.496;2023-09-07T05:29:04;101985.41;;;17.91;100.00
20043;BME280;10182;52.896;6.496;2023-09-07T05:34:06;101982.91;;;18.04;100.00
20043;BME280;10182;52.896;6.496;2023-09-07T05:39:09;101989.47;;;18.14;100.00
20043;BME280;10182;52.896;6.496;2023-09-07T05:44:11;101987.09;;;18.24;100.00
20043;BME280;10182;52.896;6.496;2023-09-07T05:49:13;101990.53;;;18.26;100.00
20043;BME280;10182;52.896;6.496;2023-09-07T05:54:16;101993.63;;;18.34;100.00
20043;BME280;10182;52.896;6.496;2023-09-07T05:59:17;101991.34;;;18.42;100.00
20043;BME280;10182;52.896;6.496;2023-09-07T06:04:20;101994.06;;;18.57;100.00
20043;BME280;10182;52.896;6.496;2023-09-07T06:09:23;101992.47;;;18.69;100.00
20043;BME280;10182;52.896;6.496;2023-09-07T06:14:24;101994.38;;;18.81;100.00
20043;BME280;10182;52.896;6.496;2023-09-07T06:19:26;101998.94;;;18.95;100.00
20043;BME280;10182;52.896;6.496;2023-09-07T06:24:29;102008.22;;;19.04;100.00
20043;BME280;10182;52.896;6.496;2023-09-07T06:29:31;102013.28;;;19.23;100.00
20043;BME280;10182;52.896;6.496;2023-09-07T06:34:32;102006.84;;;19.40;100.00
20043;BME280;10182;52.896;6.496;2023-09-07T06:39:36;102016.72;;;19.54;100.00
20043;BME280;10182;52.896;6.496;2023-09-07T06:44:37;102017.06;;;19.62;100.00
20043;BME280;10182;52.896;6.496;2023-09-07T06:49:39;102020.59;;;19.77;100.00
20043;BME280;10182;52.896;6.496;2023-09-07T06:54:42;102014.31;;;19.91;100.00
20043;BME280;10182;52.896;6.496;2023-09-07T06:59:43;102014.28;;;20.05;100.00
20043;BME280;10182;52.896;6.496;2023-09-07T07:04:45;102018.28;;;20.12;100.00
20043;BME280;10182;52.896;6.496;2023-09-07T07:09:48;102028.22;;;20.25;100.00
20043;BME280;10182;52.896;6.496;2023-09-07T07:14:51;102025.25;;;20.42;100.00
20043;BME280;10182;52.896;6.496;2023-09-07T07:19:52;102030.63;;;20.55;100.00
20043;BME280;10182;52.896;6.496;2023-09-07T07:24:55;102038.66;;;20.70;100.00
20043;BME280;10182;52.896;6.496;2023-09-07T07:29:57;102026.69;;;20.87;100.00
20043;BME280;10182;52.896;6.496;2023-09-07T07:34:59;102034.03;;;20.98;100.00
20043;BME280;10182;52.896;6.496;2023-09-07T07:40:02;102025.59;;;21.15;100.00
20043;BME280;10182;52.896;6.496;2023-09-07T07:45:05;102030.41;;;21.36;100.00
20043;BME280;10182;52.896;6.496;2023-09-07T07:50:08;102034.69;;;21.51;100.00
20043;BME280;10182;52.896;6.496;2023-09-07T07:55:11;102030.03;;;21.66;100.00
20043;BME280;10182;52.896;6.496;2023-09-07T08:00:14;102023.53;;;21.82;100.00
20043;BME280;10182;52.896;6.496;2023-09-07T08:05:15;102016.22;;;21.95;100.00
20043;BME280;10182;52.896;6.496;2023-09-07T08:10:19;102022.19;;;22.11;100.00
20043;BME280;10182;52.896;6.496;2023-09-07T08:15:20;102030.94;;;22.26;100.00
20043;BME280;10182;52.896;6.496;2023-09-07T08:20:24;102020.13;;;22.51;100.00
20043;BME280;10182;52.896;6.496;2023-09-07T08:25:28;102014.69;;;22.75;100.00
20043;BME280;10182;52.896;6.496;2023-09-07T08:30:30;102025.22;;;22.89;100.00
20043;BME280;10182;52.896;6.496;2023-09-07T08:35:31;102025.84;;;22.93;100.00
20043;BME280;10182;52.896;6.496;2023-09-07T08:40:38;102025.13;;;23.02;100.00
20043;BME280;10182;52.896;6.496;2023-09-07T08:45:43;102017.66;;;23.28;100.00
20043;BME280;10182;52.896;6.496;2023-09-07T08:50:49;102016.78;;;23.39;100.00
20043;BME280;10182;52.896;6.496;2023-09-07T08:55:54;102014.06;;;23.51;100.00
20043;BME280;10182;52.896;6.496;2023-09-07T09:00:55;102005.44;;;23.68;100.00
20043;BME280;10182;52.896;6.496;2023-09-07T09:05:58;102001.19;;;23.87;100.00
20043;BME280;10182;52.896;6.496;2023-09-07T09:11:02;102006.31;;;24.01;100.00
20043;BME280;10182;52.896;6.496;2023-09-07T09:16:04;102002.78;;;24.22;100.00
20043;BME280;10182;52.896;6.496;2023-09-07T09:21:05;101986.59;;;24.31;100.00
20043;BME280;10182;52.896;6.496;2023-09-07T09:26:09;101997.72;;;24.49;100.00
20043;BME280;10182;52.896;6.496;2023-09-07T09:31:11;101990.25;;;24.63;100.00
20043;BME280;10182;52.896;6.496;2023-09-07T09:36:14;101992.78;;;24.76;100.00
20043;BME280;10182;52.896;6.496;2023-09-07T09:41:17;101990.81;;;24.88;100.00
20043;BME280;10182;52.896;6.496;2023-09-07T09:46:19;101992.31;;;25.02;100.00
20043;BME280;10182;52.896;6.496;2023-09-07T09:51:22;101986.97;;;25.21;100.00
20043;BME280;10182;52.896;6.496;2023-09-07T09:56:26;101976.34;;;25.39;100.00
20043;BME280;10182;52.896;6.496;2023-09-07T10:01:28;101974.66;;;25.48;100.00
20043;BME280;10182;52.896;6.496;2023-09-07T10:06:33;101965.78;;;25.56;100.00
20043;BME280;10182;52.896;6.496;2023-09-07T10:11:38;101957.13;;;25.62;100.00
20043;BME280;10182;52.896;6.496;2023-09-07T10:16:42;101951.97;;;25.68;100.00
20043;BME280;10182;52.896;6.496;2023-09-07T10:21:44;101958.97;;;25.91;100.00
20043;BME280;10182;52.896;6.496;2023-09-07T10:26:55;101959.81;;;26.01;100.00
20043;BME280;10182;52.896;6.496;2023-09-07T10:32:04;101962.41;;;26.02;100.00
20043;BME280;10182;52.896;6.496;2023-09-07T10:37:06;101945.69;;;26.17;100.00
20043;BME280;10182;52.896;6.496;2023-09-07T10:42:21;101952.84;;;26.18;100.00
20043;BME280;10182;52.896;6.496;2023-09-07T10:47:24;101948.53;;;26.25;100.00
20043;BME280;10182;52.896;6.496;2023-09-07T10:52:25;101945.91;;;26.43;100.00
20043;BME280;10182;52.896;6.496;2023-09-07T10:57:28;101946.56;;;26.65;100.00
20043;BME280;10182;52.896;6.496;2023-09-07T11:02:30;101946.03;;;26.71;100.00
20043;BME280;10182;52.896;6.496;2023-09-07T11:07:32;101938.66;;;26.81;100.00
20043;BME280;10182;52.896;6.496;2023-09-07T11:12:39;101935.22;;;26.89;100.00
20043;BME280;10182;52.896;6.496;2023-09-07T11:17:41;101925.22;;;27.08;100.00
20043;BME280;10182;52.896;6.496;2023-09-07T11:22:43;101924.06;;;27.10;96.71
20043;BME280;10182;52.896;6.496;2023-09-07T11:27:46;101924.66;;;27.32;96.86
20043;BME280;10182;52.896;6.496;2023-09-07T11:32:48;101924.31;;;27.35;93.67
20043;BME280;10182;52.896;6.496;2023-09-07T11:37:51;101914.31;;;27.35;90.41
20043;BME280;10182;52.896;6.496;2023-09-07T11:42:54;101902.63;;;27.53;95.88
20043;BME280;10182;52.896;6.496;2023-09-07T11:47:56;101901.50;;;27.64;94.65
20043;BME280;10182;52.896;6.496;2023-09-07T11:52:58;101894.63;;;27.69;89.47
20043;BME280;10182;52.896;6.496;2023-09-07T11:58:01;101896.75;;;27.84;90.91
20043;BME280;10182;52.896;6.496;2023-09-07T12:03:03;101878.41;;;28.04;90.04
20043;BME280;10182;52.896;6.496;2023-09-07T12:08:05;101878.78;;;28.09;91.48
20043;BME280;10182;52.896;6.496;2023-09-07T12:13:08;101878.97;;;28.08;93.86
20043;BME280;10182;52.896;6.496;2023-09-07T12:18:10;101879.72;;;28.26;93.83
20043;BME280;10182;52.896;6.496;2023-09-07T12:23:12;101874.28;;;28.26;83.87
20043;BME280;10182;52.896;6.496;2023-09-07T12:28:15;101878.88;;;28.26;82.59
20043;BME280;10182;52.896;6.496;2023-09-07T12:33:16;101866.41;;;28.15;77.29
20043;BME280;10182;52.896;6.496;2023-09-07T12:38:18;101863.06;;;28.29;85.19
20043;BME280;10182;52.896;6.496;2023-09-07T12:43:24;101868.75;;;28.44;76.34
20043;BME280;10182;52.896;6.496;2023-09-07T12:48:26;101859.78;;;28.52;71.37
20043;BME280;10182;52.896;6.496;2023-09-07T12:53:27;101860.81;;;28.59;74.75
20043;BME280;10182;52.896;6.496;2023-09-07T12:58:30;101848.28;;;28.66;73.82
20043;BME280;10182;52.896;6.496;2023-09-07T13:03:32;101851.53;;;28.70;79.17
20043;BME280;10182;52.896;6.496;2023-09-07T13:08:34;101852.66;;;28.59;76.74
20043;BME280;10182;52.896;6.496;2023-09-07T13:13:37;101847.59;;;28.64;77.12
20043;BME280;10182;52.896;6.496;2023-09-07T13:18:39;101844.72;;;28.66;79.31
20043;BME280;10182;52.896;6.496;2023-09-07T13:23:41;101838.19;;;28.59;80.92
20043;BME280;10182;52.896;6.496;2023-09-07T13:28:44;101832.19;;;28.55;77.99
20043;BME280;10182;52.896;6.496;2023-09-07T13:33:46;101830.75;;;28.69;79.09
20043;BME280;10182;52.896;6.496;2023-09-07T13:38:47;101818.00;;;28.78;80.63
20043;BME280;10182;52.896;6.496;2023-09-07T13:43:50;101827.38;;;28.75;80.87
20043;BME280;10182;52.896;6.496;2023-09-07T13:48:52;101809.47;;;28.73;83.67
20043;BME280;10182;52.896;6.496;2023-09-07T13:53:54;101799.78;;;28.78;79.73
20043;BME280;10182;52.896;6.496;2023-09-07T13:58:57;101804.22;;;28.87;80.80
20043;BME280;10182;52.896;6.496;2023-09-07T14:03:59;101807.16;;;28.94;81.46
20043;BME280;10182;52.896;6.496;2023-09-07T14:09:01;101800.69;;;28.95;82.36
20043;BME280;10182;52.896;6.496;2023-09-07T14:14:04;101803.91;;;28.99;81.25
20043;BME280;10182;52.896;6.496;2023-09-07T14:19:06;101800.16;;;29.00;78.14
20043;BME280;10182;52.896;6.496;2023-09-07T14:24:08;101789.44;;;28.98;77.94
20043;BME280;10182;52.896;6.496;2023-09-07T14:29:11;101792.50;;;28.95;77.00
20043;BME280;10182;52.896;6.496;2023-09-07T14:34:13;101787.19;;;28.94;79.16
20043;BME280;10182;52.896;6.496;2023-09-07T14:39:14;101793.53;;;28.94;78.42
20043;BME280;10182;52.896;6.496;2023-09-07T14:44:17;101797.25;;;28.85;75.37
20043;BME280;10182;52.896;6.496;2023-09-07T14:49:19;101792.13;;;28.82;75.99
20043;BME280;10182;52.896;6.496;2023-09-07T14:54:21;101788.41;;;28.83;73.29
20043;BME280;10182;52.896;6.496;2023-09-07T14:59:24;101785.78;;;28.73;72.80
20043;BME280;10182;52.896;6.496;2023-09-07T15:04:26;101781.56;;;28.70;75.68
20043;BME280;10182;52.896;6.496;2023-09-07T15:09:27;101780.16;;;28.66;76.91
20043;BME280;10182;52.896;6.496;2023-09-07T15:14:31;101765.84;;;28.64;75.53
20043;BME280;10182;52.896;6.496;2023-09-07T15:19:32;101765.47;;;28.59;77.90
20043;BME280;10182;52.896;6.496;2023-09-07T15:24:34;101762.22;;;28.56;79.30
20043;BME280;10182;52.896;6.496;2023-09-07T15:29:37;101768.00;;;28.52;81.28
20043;BME280;10182;52.896;6.496;2023-09-07T15:34:39;101760.13;;;28.41;83.20
20043;BME280;10182;52.896;6.496;2023-09-07T15:39:41;101762.31;;;28.37;83.77
20043;BME280;10182;52.896;6.496;2023-09-07T15:44:46;101754.66;;;28.33;83.12
20043;BME280;10182;52.896;6.496;2023-09-07T15:49:48;101753.94;;;28.31;83.56
20043;BME280;10182;52.896;6.496;2023-09-07T15:54:50;101745.44;;;28.26;84.32
20043;BME280;10182;52.896;6.496;2023-09-07T15:59:53;101745.06;;;28.20;81.70
20043;BME280;10182;52.896;6.496;2023-09-07T16:04:56;101747.75;;;28.12;83.78
20043;BME280;10182;52.896;6.496;2023-09-07T16:09:58;101743.13;;;28.05;83.66
20043;BME280;10182;52.896;6.496;2023-09-07T16:15:01;101741.44;;;28.03;83.40
20043;BME280;10182;52.896;6.496;2023-09-07T16:20:03;101741.22;;;27.97;86.50
20043;BME280;10182;52.896;6.496;2023-09-07T16:25:06;101743.56;;;27.92;86.62
20043;BME280;10182;52.896;6.496;2023-09-07T16:30:10;101738.91;;;27.84;87.29
20043;BME280;10182;52.896;6.496;2023-09-07T16:35:12;101734.91;;;27.70;90.79
20043;BME280;10182;52.896;6.496;2023-09-07T16:40:13;101741.59;;;27.49;98.13
20043;BME280;10182;52.896;6.496;2023-09-07T16:45:17;101739.28;;;27.36;99.16
20043;BME280;10182;52.896;6.496;2023-09-07T16:50:18;101739.09;;;27.20;100.00
20043;BME280;10182;52.896;6.496;2023-09-07T16:55:20;101739.13;;;27.02;100.00
20043;BME280;10182;52.896;6.496;2023-09-07T17:00:23;101740.22;;;26.91;100.00
20043;BME280;10182;52.896;6.496;2023-09-07T17:05:25;101735.88;;;26.80;100.00
20043;BME280;10182;52.896;6.496;2023-09-07T17:10:27;101740.06;;;26.75;100.00
20043;BME280;10182;52.896;6.496;2023-09-07T17:15:30;101733.97;;;26.63;100.00
20043;BME280;10182;52.896;6.496;2023-09-07T17:20:34;101728.47;;;26.55;100.00
20043;BME280;10182;52.896;6.496;2023-09-07T17:25:36;101727.75;;;26.52;100.00
20043;BME280;10182;52.896;6.496;2023-09-07T17:30:40;101719.25;;;26.38;100.00
20043;BME280;10182;52.896;6.496;2023-09-07T17:35:41;101726.63;;;26.27;100.00
20043;BME280;10182;52.896;6.496;2023-09-07T17:40:43;101735.41;;;26.11;100.00
20043;BME280;10182;52.896;6.496;2023-09-07T17:45:46;101729.16;;;25.91;100.00
20043;BME280;10182;52.896;6.496;2023-09-07T17:50:48;101740.09;;;25.72;100.00
20043;BME280;10182;52.896;6.496;2023-09-07T17:55:49;101740.53;;;25.67;100.00
20043;BME280;10182;52.896;6.496;2023-09-07T18:00:52;101739.16;;;25.43;100.00
20043;BME280;10182;52.896;6.496;2023-09-07T18:05:54;101744.28;;;25.37;100.00
20043;BME280;10182;52.896;6.496;2023-09-07T18:10:56;101753.25;;;25.17;100.00
20043;BME280;10182;52.896;6.496;2023-09-07T18:15:59;101752.69;;;25.04;100.00
20043;BME280;10182;52.896;6.496;2023-09-07T18:21:04;101750.72;;;24.87;100.00
20043;BME280;10182;52.896;6.496;2023-09-07T18:26:10;101747.25;;;24.65;100.00
20043;BME280;10182;52.896;6.496;2023-09-07T18:31:13;101745.19;;;24.47;100.00
20043;BME280;10182;52.896;6.496;2023-09-07T18:36:15;101754.56;;;24.43;100.00
20043;BME280;10182;52.896;6.496;2023-09-07T18:41:16;101752.84;;;24.32;100.00
20043;BME280;10182;52.896;6.496;2023-09-07T18:46:19;101758.75;;;24.16;100.00
20043;BME280;10182;52.896;6.496;2023-09-07T18:51:21;101760.88;;;24.13;100.00
20043;BME280;10182;52.896;6.496;2023-09-07T18:56:23;101757.69;;;23.98;100.00
20043;BME280;10182;52.896;6.496;2023-09-07T19:01:26;101758.84;;;24.05;100.00
20043;BME280;10182;52.896;6.496;2023-09-07T19:06:27;101755.13;;;23.96;100.00
20043;BME280;10182;52.896;6.496;2023-09-07T19:11:30;101747.53;;;23.90;100.00
20043;BME280;10182;52.896;6.496;2023-09-07T19:16:33;101752.03;;;23.80;100.00
20043;BME280;10182;52.896;6.496;2023-09-07T19:21:35;101754.41;;;23.73;100.00
20043;BME280;10182;52.896;6.496;2023-09-07T19:26:38;101770.81;;;23.60;100.00
20043;BME280;10182;52.896;6.496;2023-09-07T19:31:41;101769.34;;;23.56;100.00
20043;BME280;10182;52.896;6.496;2023-09-07T19:36:43;101760.34;;;23.46;100.00
20043;BME280;10182;52.896;6.496;2023-09-07T19:41:45;101766.06;;;23.31;100.00
20043;BME280;10182;52.896;6.496;2023-09-07T19:46:48;101769.31;;;23.14;100.00
20043;BME280;10182;52.896;6.496;2023-09-07T19:51:49;101766.91;;;22.99;100.00
20043;BME280;10182;52.896;6.496;2023-09-07T19:56:51;101774.19;;;22.88;100.00
20043;BME280;10182;52.896;6.496;2023-09-07T20:01:56;101781.69;;;22.73;100.00
20043;BME280;10182;52.896;6.496;2023-09-07T20:06:58;101777.94;;;22.53;100.00
20043;BME280;10182;52.896;6.496;2023-09-07T20:12:00;101779.66;;;22.42;100.00
20043;BME280;10182;52.896;6.496;2023-09-07T20:17:03;101777.59;;;22.46;100.00
20043;BME280;10182;52.896;6.496;2023-09-07T20:22:05;101769.97;;;22.40;100.00
20043;BME280;10182;52.896;6.496;2023-09-07T20:27:07;101767.63;;;22.46;100.00
20043;BME280;10182;52.896;6.496;2023-09-07T20:32:10;101761.00;;;22.51;100.00
20043;BME280;10182;52.896;6.496;2023-09-07T20:37:12;101754.28;;;22.45;100.00
20043;BME280;10182;52.896;6.496;2023-09-07T20:42:13;101761.63;;;22.54;100.00
20043;BME280;10182;52.896;6.496;2023-09-07T20:47:17;101761.13;;;22.49;100.00
20043;BME280;10182;52.896;6.496;2023-09-07T20:52:19;101759.06;;;22.41;100.00
20043;BME280;10182;52.896;6.496;2023-09-07T20:57:20;101755.75;;;22.38;100.00
20043;BME280;10182;52.896;6.496;2023-09-07T21:02:23;101757.44;;;22.27;100.00
20043;BME280;10182;52.896;6.496;2023-09-07T21:07:25;101746.03;;;22.24;100.00
20043;BME280;10182;52.896;6.496;2023-09-07T21:12:27;101742.47;;;22.23;100.00
20043;BME280;10182;52.896;6.496;2023-09-07T21:17:30;101739.41;;;22.17;100.00
20043;BME280;10182;52.896;6.496;2023-09-07T21:22:31;101737.56;;;22.06;100.00
20043;BME280;10182;52.896;6.496;2023-09-07T21:27:33;101737.72;;;21.93;100.00
20043;BME280;10182;52.896;6.496;2023-09-07T21:32:36;101731.94;;;21.86;100.00
20043;BME280;10182;52.896;6.496;2023-09-07T21:37:38;101732.78;;;21.75;100.00
20043;BME280;10182;52.896;6.496;2023-09-07T21:42:40;101727.13;;;21.67;100.00
20043;BME280;10182;52.896;6.496;2023-09-07T21:47:43;101726.63;;;21.62;100.00
20043;BME280;10182;52.896;6.496;2023-09-07T21:52:45;101734.34;;;21.55;100.00
20043;BME280;10182;52.896;6.496;2023-09-07T21:57:46;101736.13;;;21.43;100.00
20043;BME280;10182;52.896;6.496;2023-09-07T22:02:49;101730.97;;;21.40;100.00
20043;BME280;10182;52.896;6.496;2023-09-07T22:07:51;101728.63;;;21.36;100.00
20043;BME280;10182;52.896;6.496;2023-09-07T22:12:53;101729.84;;;21.32;100.00
20043;BME280;10182;52.896;6.496;2023-09-07T22:18:00;101729.22;;;21.28;100.00
20043;BME280;10182;52.896;6.496;2023-09-07T22:23:02;101722.84;;;21.18;100.00
20043;BME280;10182;52.896;6.496;2023-09-07T22:28:05;101715.44;;;21.08;100.00
20043;BME280;10182;52.896;6.496;2023-09-07T22:33:10;101713.31;;;21.01;100.00
20043;BME280;10182;52.896;6.496;2023-09-07T22:38:12;101717.69;;;20.90;100.00
20043;BME280;10182;52.896;6.496;2023-09-07T22:43:14;101710.72;;;20.88;100.00
20043;BME280;10182;52.896;6.496;2023-09-07T22:48:18;101703.19;;;20.80;100.00
20043;BME280;10182;52.896;6.496;2023-09-07T22:53:19;101709.91;;;20.74;100.00
20043;BME280;10182;52.896;6.496;2023-09-07T22:58:22;101700.88;;;20.62;100.00
20043;BME280;10182;52.896;6.496;2023-09-07T23:03:25;101709.41;;;20.56;100.00
20043;BME280;10182;52.896;6.496;2023-09-07T23:08:27;101706.31;;;20.50;100.00
20043;BME280;10182;52.896;6.496;2023-09-07T23:13:31;101708.38;;;20.46;100.00
20043;BME280;10182;52.896;6.496;2023-09-07T23:18:36;101716.25;;;20.36;100.00
20043;BME280;10182;52.896;6.496;2023-09-07T23:23:38;101712.84;;;20.34;100.00
20043;BME280;10182;52.896;6.496;2023-09-07T23:28:40;101709.72;;;20.27;100.00
20043;BME280;10182;52.896;6.496;2023-09-07T23:33:43;101711.16;;;20.20;100.00
20043;BME280;10182;52.896;6.496;2023-09-07T23:38:45;101707.16;;;20.13;100.00
20043;BME280;10182;52.896;6.496;2023-09-07T23:43:47;101708.03;;;20.14;100.00
20043;BME280;10182;52.896;6.496;2023-09-07T23:48:50;101714.38;;;20.12;100.00
20043;BME280;10182;52.896;6.496;2023-09-07T23:53:52;101705.25;;;20.02;100.00
20043;BME280;10182;52.896;6.496;2023-09-07T23:58:53;101707.09;;;20.02;100.00
